Time;durP1;ratioP1;P1;durP2;ratioP2;P2;SDS_P1;SDS_P2;PMS_P1;PMS_P2;Temp;Humidity;BMP_temperature;BMP_pressure;BME280_temperature;BME280_humidity;BME280_pressure;Samples;Min_cycle;Max_cycle;Signal;HPM_P1;HPM_P2
2022/07/31 00:02:01;;;;;;;10.30;8.27;;;;;;;19.68;66.37;101684.28;5026791;28;20104;-56
2022/07/31 00:04:27;;;;;;;10.15;8.00;;;;;;;19.74;66.41;101683.44;5025661;28;20029;-55
2022/07/31 00:06:52;;;;;;;12.50;8.30;;;;;;;19.62;66.25;101693.19;5024200;28;20043;-55
2022/07/31 00:09:17;;;;;;;13.55;7.90;;;;;;;19.60;66.93;101689.88;5024988;28;20394;-55
2022/07/31 00:11:43;;;;;;;11.13;8.05;;;;;;;19.67;66.74;101688.00;5023092;28;20282;-55
2022/07/31 00:14:09;;;;;;;10.25;7.53;;;;;;;19.67;66.63;101693.41;5024500;28;20037;-56
2022/07/31 00:16:34;;;;;;;11.43;7.70;;;;;;;19.68;66.94;101692.38;5023031;28;20049;-56
2022/07/31 00:19:00;;;;;;;11.38;7.45;;;;;;;19.59;67.05;101682.81;5025090;28;20029;-56
2022/07/31 00:21:25;;;;;;;10.00;7.57;;;;;;;19.57;67.24;101674.13;5023548;28;20082;-56
2022/07/31 00:23:51;;;;;;;12.15;7.55;;;;;;;19.53;67.22;101678.25;5024445;28;20029;-56
2022/07/31 00:26:16;;;;;;;11.25;7.22;;;;;;;19.52;67.86;101676.59;5023401;28;20033;-56
2022/07/31 00:28:41;;;;;;;9.45;7.18;;;;;;;19.53;67.77;101670.16;5023426;28;20045;-56
2022/07/31 00:31:07;;;;;;;12.45;7.50;;;;;;;19.53;67.58;101672.84;5026375;28;20026;-56
2022/07/31 00:33:32;;;;;;;12.45;7.45;;;;;;;19.50;68.03;101671.41;5024861;28;20029;-56
2022/07/31 00:35:57;;;;;;;14.95;7.80;;;;;;;19.52;67.87;101673.91;5023517;28;20056;-56
2022/07/31 00:38:23;;;;;;;9.25;7.65;;;;;;;19.36;67.69;101686.75;5023679;28;20476;-57
2022/07/31 00:40:49;;;;;;;12.35;7.68;;;;;;;19.10;68.29;101684.06;5024902;28;20029;-56
2022/07/31 00:43:15;;;;;;;12.85;8.52;;;;;;;18.96;68.72;101679.69;5022589;28;20041;-55
2022/07/31 00:45:41;;;;;;;13.75;8.25;;;;;;;18.84;68.57;101680.31;5024244;28;20051;-55
2022/07/31 00:48:06;;;;;;;10.60;8.45;;;;;;;18.80;69.16;101672.84;5020097;28;20395;-56
2022/07/31 00:50:31;;;;;;;11.80;8.40;;;;;;;18.86;69.11;101667.47;5022950;28;20036;-56
2022/07/31 00:52:57;;;;;;;9.73;7.80;;;;;;;18.90;69.07;101672.44;5023117;28;20033;-55
2022/07/31 00:55:22;;;;;;;10.98;8.25;;;;;;;18.92;69.20;101665.81;5023933;28;20030;-56
2022/07/31 00:57:47;;;;;;;10.60;8.10;;;;;;;18.90;69.15;101656.28;5019914;28;20132;-56
2022/07/31 01:00:14;;;;;;;12.38;8.02;;;;;;;18.91;68.51;101657.94;5023134;28;20383;-55
2022/07/31 01:02:39;;;;;;;9.95;7.68;;;;;;;18.89;68.22;101647.38;5026029;28;21383;-56
2022/07/31 01:05:05;;;;;;;13.35;7.95;;;;;;;18.91;67.97;101647.19;5020233;28;20112;-56
2022/07/31 01:07:30;;;;;;;10.95;7.50;;;;;;;18.91;68.19;101644.50;5025013;28;20036;-57
2022/07/31 01:09:56;;;;;;;8.65;7.55;;;;;;;18.92;68.43;101654.22;5027207;28;20021;-56
2022/07/31 01:12:29;;;;;;;10.50;7.85;;;;;;;18.92;68.11;101651.53;5019472;28;20029;-54
2022/07/31 01:14:58;;;;;;;10.73;8.10;;;;;;;18.88;68.46;101648.41;5022366;28;20034;-55
2022/07/31 01:17:28;;;;;;;12.65;8.38;;;;;;;18.77;68.12;101649.00;5023467;28;20037;-55
2022/07/31 01:19:53;;;;;;;10.77;7.82;;;;;;;18.79;68.21;101649.63;5023258;28;20033;-56
2022/07/31 01:22:35;;;;;;;11.68;8.57;;;;;;;18.76;68.41;101652.72;5024016;28;20445;-56
2022/07/31 01:25:31;;;;;;;11.13;7.65;;;;;;;18.72;68.55;101651.50;5021156;28;20075;-56
2022/07/31 01:28:08;;;;;;;10.73;7.10;;;;;;;18.59;68.11;101649.59;5023357;28;20032;-56
2022/07/31 01:30:38;;;;;;;7.97;6.80;;;;;;;18.51;68.12;101652.47;5021472;28;20017;-55
2022/07/31 01:33:14;;;;;;;11.02;6.75;;;;;;;18.52;68.46;101654.13;5020553;28;20025;-56
2022/07/31 01:35:50;;;;;;;10.15;6.70;;;;;;;18.54;68.13;101655.56;5023116;28;20045;-56
2022/07/31 01:38:23;;;;;;;10.68;6.28;;;;;;;18.54;67.97;101663.66;5020977;28;20495;-57
2022/07/31 01:40:55;;;;;;;11.20;6.38;;;;;;;18.52;67.91;101660.34;5022976;28;20175;-55
2022/07/31 01:43:25;;;;;;;10.30;6.40;;;;;;;18.44;68.03;101649.75;5021346;28;20782;-55
2022/07/31 01:45:55;;;;;;;10.32;6.20;;;;;;;18.43;67.91;101660.69;5023599;28;20026;-56
2022/07/31 01:48:21;;;;;;;8.50;6.25;;;;;;;18.41;68.44;101652.00;5018501;28;20593;-56
2022/07/31 01:50:49;;;;;;;10.80;6.15;;;;;;;18.35;68.29;101652.81;5023238;28;20300;-56
2022/07/31 01:53:19;;;;;;;11.18;6.45;;;;;;;18.27;68.37;101649.28;5022638;28;20080;-56
2022/07/31 01:55:47;;;;;;;13.68;5.82;;;;;;;18.22;68.74;101654.44;5023523;28;20029;-57
2022/07/31 01:58:14;;;;;;;12.00;5.90;;;;;;;18.21;68.80;101652.78;5020823;28;20033;-56
2022/07/31 02:00:41;;;;;;;10.88;5.47;;;;;;;18.22;69.13;101657.13;5024367;28;22135;-55
2022/07/31 02:03:08;;;;;;;9.27;5.30;;;;;;;18.20;69.05;101651.09;5020310;28;20018;-54
2022/07/31 02:05:34;;;;;;;7.88;5.28;;;;;;;18.19;68.89;101652.13;5022903;28;20026;-56
2022/07/31 02:08:02;;;;;;;11.90;6.00;;;;;;;18.24;68.98;101660.44;5021547;28;20692;-56
2022/07/31 02:10:28;;;;;;;9.40;5.50;;;;;;;18.25;68.67;101655.91;5021523;28;20433;-55
2022/07/31 02:12:55;;;;;;;9.35;5.15;;;;;;;18.26;68.69;101650.31;5021199;28;20110;-56
2022/07/31 02:15:21;;;;;;;10.93;5.40;;;;;;;18.22;68.57;101638.31;5018777;28;20021;-56
2022/07/31 02:17:48;;;;;;;10.30;4.93;;;;;;;18.35;68.08;101645.56;5024082;28;20033;-56
2022/07/31 02:20:14;;;;;;;8.80;5.05;;;;;;;18.36;67.77;101643.72;5020393;28;20060;-54
2022/07/31 02:22:40;;;;;;;8.52;5.18;;;;;;;18.40;67.73;101645.78;5022538;28;20038;-56
2022/07/31 02:25:06;;;;;;;7.45;5.22;;;;;;;18.43;67.42;101645.38;5022416;28;20036;-56
2022/07/31 02:27:33;;;;;;;10.48;5.10;;;;;;;18.45;67.80;101645.19;5019078;28;20045;-55
2022/07/31 02:30:02;;;;;;;7.93;5.32;;;;;;;18.38;67.39;101642.47;5019461;28;20025;-54
2022/07/31 02:32:30;;;;;;;9.18;5.55;;;;;;;18.36;67.54;101646.41;5005124;28;20026;-54
2022/07/31 02:34:59;;;;;;;11.70;5.70;;;;;;;18.28;67.60;101650.13;5022601;28;20443;-55
2022/07/31 02:37:26;;;;;;;7.90;5.63;;;;;;;18.12;67.96;101639.69;5018683;28;20415;-56
2022/07/31 02:39:53;;;;;;;11.88;5.63;;;;;;;18.10;68.40;101652.50;5020729;28;20025;-56
2022/07/31 02:42:20;;;;;;;7.57;5.68;;;;;;;18.09;68.15;101654.38;5015164;28;20104;-56
2022/07/31 02:44:47;;;;;;;10.18;6.47;;;;;;;18.03;68.54;101646.28;5019673;28;20494;-55
2022/07/31 02:47:13;;;;;;;11.02;7.13;;;;;;;18.03;68.72;101639.06;5021126;28;20093;-55
2022/07/31 02:49:39;;;;;;;11.48;7.22;;;;;;;17.99;68.63;101632.41;5022961;28;20103;-55
2022/07/31 02:52:05;;;;;;;12.10;7.25;;;;;;;17.95;69.25;101623.09;5022223;28;20522;-54
2022/07/31 02:54:33;;;;;;;11.20;7.07;;;;;;;18.08;69.17;101638.44;5016866;28;20029;-56
2022/07/31 02:57:01;;;;;;;10.70;6.85;;;;;;;18.14;69.13;101637.63;5019516;28;20471;-56
2022/07/31 02:59:26;;;;;;;9.38;7.07;;;;;;;18.10;69.48;101623.78;5022442;28;20026;-55
2022/07/31 03:01:53;;;;;;;10.45;7.75;;;;;;;18.16;69.33;101631.03;5021207;28;20287;-56
2022/07/31 03:04:18;;;;;;;9.57;6.95;;;;;;;18.16;69.25;101630.19;5021674;28;20108;-55
2022/07/31 03:06:43;;;;;;;13.48;8.20;;;;;;;18.17;69.69;101630.00;5023203;28;20107;-53
2022/07/31 03:09:09;;;;;;;12.90;8.20;;;;;;;18.18;69.68;101620.91;5022830;28;20033;-56
2022/07/31 03:11:35;;;;;;;15.27;8.13;;;;;;;18.19;69.90;101621.72;5020922;28;20040;-56
2022/07/31 03:14:02;;;;;;;15.50;8.20;;;;;;;18.15;70.20;101626.69;5024427;28;20029;-56
2022/07/31 03:16:29;;;;;;;13.25;8.20;;;;;;;18.17;70.53;101621.09;5023830;28;20108;-56
2022/07/31 03:18:55;;;;;;;14.20;8.48;;;;;;;18.22;70.27;101619.50;5026211;28;20029;-55
2022/07/31 03:21:21;;;;;;;10.38;8.15;;;;;;;18.19;70.45;101601.03;5024928;28;20030;-57
2022/07/31 03:23:47;;;;;;;13.20;8.15;;;;;;;18.21;70.80;101606.22;5023884;28;20027;-55
2022/07/31 03:26:13;;;;;;;13.02;8.30;;;;;;;18.21;70.83;101609.78;5026711;28;20033;-56
2022/07/31 03:28:39;;;;;;;12.05;8.48;;;;;;;18.21;71.25;101620.53;5026315;28;20076;-52
2022/07/31 03:31:06;;;;;;;12.80;8.75;;;;;;;18.21;71.04;101615.16;5027196;28;20528;-53
2022/07/31 03:33:32;;;;;;;13.80;9.38;;;;;;;18.19;71.37;101605.59;5022586;28;20025;-54
2022/07/31 03:35:57;;;;;;;12.38;8.50;;;;;;;18.17;71.73;101607.66;5027135;28;20091;-54
2022/07/31 03:38:23;;;;;;;15.73;8.68;;;;;;;18.17;71.50;101607.66;5025328;28;20538;-52
2022/07/31 03:40:48;;;;;;;12.80;8.68;;;;;;;18.16;71.61;101608.69;5025453;28;20026;-54
2022/07/31 03:43:15;;;;;;;12.88;9.48;;;;;;;18.21;71.60;101611.59;5024215;28;20028;-53
2022/07/31 03:45:42;;;;;;;11.48;8.65;;;;;;;18.19;71.87;101605.59;5023081;28;20795;-54
2022/07/31 03:48:07;;;;;;;11.15;8.05;;;;;;;18.22;72.13;101611.44;5024455;28;20033;-53
2022/07/31 03:50:36;;;;;;;14.15;7.93;;;;;;;18.29;72.19;101610.59;5024688;28;20087;-53
2022/07/31 03:53:03;;;;;;;14.00;8.25;;;;;;;18.30;72.22;101596.13;5022952;28;20030;-53
2022/07/31 03:55:29;;;;;;;12.20;7.78;;;;;;;18.25;72.20;101611.03;5024117;28;20100;-54
2022/07/31 03:57:57;;;;;;;16.95;8.20;;;;;;;18.21;72.31;101607.06;5024451;28;20029;-53
2022/07/31 04:00:26;;;;;;;15.02;10.77;;;;;;;18.19;72.62;101617.19;5023552;28;20494;-53
2022/07/31 04:02:55;;;;;;;15.65;10.82;;;;;;;18.12;72.50;101616.34;5023873;28;20386;-54
2022/07/31 04:05:20;;;;;;;14.60;10.68;;;;;;;18.02;73.01;101615.88;5025972;28;20112;-54
2022/07/31 04:07:46;;;;;;;16.90;10.85;;;;;;;17.94;73.71;101618.75;5025521;28;20251;-54
2022/07/31 04:10:11;;;;;;;18.40;10.82;;;;;;;17.88;73.27;101616.84;5024174;28;20028;-54
2022/07/31 04:12:37;;;;;;;17.60;11.32;;;;;;;17.84;73.63;101620.97;5023830;28;20030;-50
2022/07/31 04:15:03;;;;;;;13.73;11.27;;;;;;;17.79;73.76;101621.56;5025172;28;20483;-54
2022/07/31 04:17:28;;;;;;;15.93;11.50;;;;;;;17.76;73.97;101619.28;5024796;28;20033;-54
2022/07/31 04:19:53;;;;;;;19.48;11.70;;;;;;;17.74;74.28;101615.13;5025178;28;20032;-54
2022/07/31 04:22:19;;;;;;;17.23;12.30;;;;;;;17.69;74.30;101626.47;5022106;28;21576;-54
2022/07/31 04:24:44;;;;;;;22.30;13.15;;;;;;;17.67;74.32;101617.78;5022700;28;20534;-53
2022/07/31 04:27:09;;;;;;;18.58;12.40;;;;;;;17.61;74.72;101623.91;5025060;28;20018;-53
2022/07/31 04:29:35;;;;;;;17.40;13.57;;;;;;;17.55;75.04;101630.91;5024668;28;20570;-55
2022/07/31 04:32:00;;;;;;;17.25;13.20;;;;;;;17.52;75.31;101627.78;5024321;28;20642;-55
2022/07/31 04:34:26;;;;;;;17.48;13.40;;;;;;;17.50;75.37;101638.72;5020621;28;20044;-54
2022/07/31 04:36:51;;;;;;;16.42;14.00;;;;;;;17.48;75.91;101632.72;5020012;28;20037;-54
2022/07/31 04:39:17;;;;;;;20.30;14.48;;;;;;;17.47;75.74;101627.53;5024446;28;20029;-55
2022/07/31 04:41:43;;;;;;;22.65;14.82;;;;;;;17.45;75.61;101627.75;5023208;28;20033;-54
2022/07/31 04:44:09;;;;;;;23.83;15.57;;;;;;;17.39;75.97;101617.78;5021004;28;20104;-54
2022/07/31 04:46:34;;;;;;;22.08;15.27;;;;;;;17.41;75.83;101623.78;5024607;28;20029;-54
2022/07/31 04:49:00;;;;;;;21.92;15.75;;;;;;;17.39;76.21;101625.84;5017706;28;20610;-54
2022/07/31 04:51:25;;;;;;;20.05;14.60;;;;;;;17.40;76.38;101622.13;5020996;28;20026;-53
2022/07/31 04:53:51;;;;;;;19.98;14.88;;;;;;;17.42;76.48;101630.81;5021500;28;20458;-54
2022/07/31 04:56:34;;;;;;;19.77;14.20;;;;;;;17.43;76.50;101627.13;5022829;28;20108;-52
2022/07/31 04:59:05;;;;;;;22.15;14.65;;;;;;;17.39;76.72;101636.59;5021306;28;20044;-55
2022/07/31 05:01:32;;;;;;;19.45;15.50;;;;;;;17.30;76.91;101614.41;5023678;28;20029;-54
2022/07/31 05:03:57;;;;;;;18.60;15.10;;;;;;;17.37;76.82;101619.84;5022722;28;20033;-55
2022/07/31 05:06:31;;;;;;;17.63;14.50;;;;;;;17.37;77.27;101617.16;5027856;28;20021;-55
2022/07/31 05:08:57;;;;;;;19.42;14.93;;;;;;;17.33;77.15;101616.69;5028380;28;20052;-54
2022/07/31 05:11:22;;;;;;;22.98;14.80;;;;;;;17.31;77.16;101624.13;5023412;28;20018;-55
2022/07/31 05:13:58;;;;;;;18.80;14.23;;;;;;;17.30;77.62;101621.63;5025841;28;20081;-52
2022/07/31 05:16:26;;;;;;;18.08;14.02;;;;;;;17.25;78.14;101610.66;5022071;28;20514;-54
2022/07/31 05:18:51;;;;;;;18.00;13.65;;;;;;;17.24;77.90;101615.19;5018675;28;20071;-53
2022/07/31 05:21:17;;;;;;;20.33;14.75;;;;;;;17.21;78.28;101609.38;5020410;28;20052;-54
2022/07/31 05:23:44;;;;;;;14.80;13.18;;;;;;;17.25;78.34;101613.34;5019171;28;20095;-55
2022/07/31 05:26:09;;;;;;;14.70;13.10;;;;;;;17.25;78.79;101605.28;5022069;28;20022;-54
2022/07/31 05:28:36;;;;;;;16.90;12.75;;;;;;;17.23;78.71;101607.34;5024574;28;20052;-54
2022/07/31 05:31:02;;;;;;;19.73;13.70;;;;;;;17.26;79.19;101601.56;5015830;28;20034;-55
2022/07/31 05:33:27;;;;;;;18.00;12.93;;;;;;;17.22;79.32;101595.78;5016562;28;20025;-54
2022/07/31 05:35:56;;;;;;;14.02;12.52;;;;;;;17.25;79.41;101595.38;5020998;28;20068;-55
2022/07/31 05:38:22;;;;;;;14.10;12.38;;;;;;;17.30;79.33;101600.16;5018410;28;20025;-51
2022/07/31 05:40:47;;;;;;;16.95;12.18;;;;;;;17.29;79.71;101602.00;5017916;28;20430;-54
2022/07/31 05:43:12;;;;;;;15.38;12.20;;;;;;;17.31;79.43;101604.50;5020752;28;20025;-55
2022/07/31 05:45:38;;;;;;;15.85;12.00;;;;;;;17.34;79.92;101612.97;5021375;28;20091;-54
2022/07/31 05:48:04;;;;;;;16.35;11.93;;;;;;;17.29;79.52;101603.88;5024796;28;20044;-55
2022/07/31 05:50:29;;;;;;;14.30;11.48;;;;;;;17.29;79.91;101606.56;5024287;28;20387;-55
2022/07/31 05:52:54;;;;;;;15.20;11.30;;;;;;;17.27;80.15;101608.59;5024644;28;20117;-55
2022/07/31 05:55:20;;;;;;;12.75;11.38;;;;;;;17.28;80.70;101602.22;5013563;28;20033;-54
2022/07/31 05:57:46;;;;;;;12.13;10.82;;;;;;;17.28;80.86;101605.72;5019933;28;20037;-55
2022/07/31 06:00:12;;;;;;;13.82;10.20;;;;;;;17.21;81.09;101604.84;5028413;28;20021;-55
2022/07/31 06:02:38;;;;;;;13.90;9.82;;;;;;;17.28;80.98;101608.41;5021572;28;20033;-54
2022/07/31 06:05:04;;;;;;;13.18;9.80;;;;;;;17.30;81.06;101614.41;5025104;28;20085;-53
2022/07/31 06:07:29;;;;;;;15.25;9.85;;;;;;;17.32;81.69;101611.53;5027042;28;20033;-53
2022/07/31 06:09:54;;;;;;;11.80;9.13;;;;;;;17.38;81.83;101618.00;5026460;28;20033;-55
2022/07/31 06:12:20;;;;;;;16.13;9.30;;;;;;;17.43;81.51;101620.91;5031743;28;20033;-54
2022/07/31 06:14:45;;;;;;;10.18;8.55;;;;;;;17.46;81.82;101610.59;5022901;28;20013;-54
2022/07/31 06:17:10;;;;;;;12.55;8.52;;;;;;;17.49;81.88;101602.16;5021637;28;20521;-55
2022/07/31 06:19:36;;;;;;;10.75;8.07;;;;;;;17.52;81.68;101604.44;5024291;28;20049;-54
2022/07/31 06:22:01;;;;;;;10.90;8.65;;;;;;;17.54;81.85;101597.00;5023611;28;20064;-54
2022/07/31 06:24:26;;;;;;;11.70;8.10;;;;;;;17.60;81.90;101596.22;5035107;28;20112;-55
2022/07/31 06:26:58;;;;;;;11.48;7.85;;;;;;;17.64;81.90;101608.25;5028145;28;20021;-55
2022/07/31 06:29:24;;;;;;;11.38;8.07;;;;;;;17.70;82.09;101595.06;5029966;28;20024;-53
2022/07/31 06:31:49;;;;;;;10.48;8.20;;;;;;;17.74;82.37;101596.31;5029220;28;20364;-54
2022/07/31 06:34:14;;;;;;;9.43;7.13;;;;;;;17.75;81.70;101593.44;5038912;28;20060;-55
2022/07/31 06:36:40;;;;;;;10.85;8.25;;;;;;;17.78;81.74;101592.22;5025195;28;20022;-55
2022/07/31 06:39:05;;;;;;;10.15;7.72;;;;;;;17.76;82.12;101583.53;5029759;28;20037;-55
2022/07/31 06:41:46;;;;;;;11.90;7.65;;;;;;;17.86;82.23;101592.03;5021233;28;20029;-54
2022/07/31 06:44:15;;;;;;;10.52;7.15;;;;;;;17.88;81.98;101589.97;5023894;28;20025;-53
2022/07/31 06:46:41;;;;;;;12.15;7.22;;;;;;;17.94;82.56;101590.03;5030576;28;20108;-55
2022/07/31 06:49:06;;;;;;;10.77;6.97;;;;;;;17.95;82.45;101586.31;5033036;28;20554;-52
2022/07/31 06:51:32;;;;;;;10.55;7.45;;;;;;;17.99;82.23;101597.47;5030741;28;20404;-55
2022/07/31 06:53:58;;;;;;;10.40;7.47;;;;;;;18.01;82.13;101598.09;5030161;28;20083;-53
2022/07/31 06:56:24;;;;;;;11.65;7.90;;;;;;;18.00;82.19;101590.25;5028891;28;20029;-54
2022/07/31 06:58:49;;;;;;;12.38;7.13;;;;;;;18.03;82.26;101597.91;5033981;28;20060;-54
2022/07/31 07:01:14;;;;;;;13.50;7.78;;;;;;;18.06;82.20;101601.00;5034270;28;20024;-54
2022/07/31 07:03:39;;;;;;;11.90;8.02;;;;;;;18.12;82.51;101607.44;5028045;28;20033;-53
2022/07/31 07:06:05;;;;;;;10.80;7.55;;;;;;;18.16;82.45;101603.31;5030364;28;20029;-54
2022/07/31 07:08:30;;;;;;;15.02;8.25;;;;;;;18.14;82.21;101597.31;5025545;28;20537;-55
2022/07/31 07:10:56;;;;;;;13.60;8.30;;;;;;;18.19;82.42;101605.59;5027701;28;20029;-55
2022/07/31 07:13:21;;;;;;;14.10;8.43;;;;;;;18.21;82.44;101603.53;5020879;28;20536;-54
2022/07/31 07:15:46;;;;;;;13.38;8.57;;;;;;;18.27;82.30;101598.19;5024562;28;20044;-53
2022/07/31 07:18:13;;;;;;;11.77;8.20;;;;;;;18.32;82.18;101594.91;5027065;28;20033;-54
2022/07/31 07:20:39;;;;;;;13.90;9.15;;;;;;;18.37;82.11;101603.19;5037978;28;20079;-55
2022/07/31 07:23:04;;;;;;;14.05;8.75;;;;;;;18.45;82.05;101602.16;5028513;28;20017;-54
2022/07/31 07:25:29;;;;;;;12.73;9.15;;;;;;;18.46;82.03;101595.75;5028970;28;20063;-53
2022/07/31 07:27:58;;;;;;;13.90;10.30;;;;;;;18.47;82.00;101597.41;5026181;28;20084;-54
2022/07/31 07:30:27;;;;;;;13.32;9.63;;;;;;;18.52;82.07;101587.72;5031034;28;20177;-53
2022/07/31 07:32:52;;;;;;;15.50;9.43;;;;;;;18.61;81.89;101592.88;5025367;28;20558;-54
2022/07/31 07:35:17;;;;;;;15.52;10.27;;;;;;;18.70;82.12;101594.38;5022692;28;20182;-53
2022/07/31 07:37:42;;;;;;;15.95;10.40;;;;;;;18.77;81.71;101587.94;5030305;28;20033;-54
2022/07/31 07:40:08;;;;;;;19.77;11.77;;;;;;;18.84;82.17;101588.81;5023876;28;20041;-54
2022/07/31 07:42:34;;;;;;;17.00;10.82;;;;;;;18.91;81.81;101574.50;5027933;28;20383;-52
2022/07/31 07:44:59;;;;;;;17.52;11.18;;;;;;;19.06;81.96;101575.09;5027668;28;20047;-52
2022/07/31 07:47:24;;;;;;;20.73;13.20;;;;;;;19.17;81.86;101574.50;5021794;28;20491;-54
2022/07/31 07:49:50;;;;;;;19.08;13.05;;;;;;;19.22;81.30;101571.16;5024335;28;20220;-52
2022/07/31 07:52:16;;;;;;;18.60;12.82;;;;;;;19.28;80.83;101573.00;5031524;28;20043;-53
2022/07/31 07:54:43;;;;;;;17.90;13.20;;;;;;;19.37;80.68;101575.28;5022951;28;20053;-52
2022/07/31 07:57:13;;;;;;;20.67;13.85;;;;;;;19.41;80.33;101578.38;5029484;28;20021;-54
2022/07/31 07:59:38;;;;;;;20.63;13.23;;;;;;;19.41;79.91;101581.91;5028206;28;20312;-55
2022/07/31 08:02:03;;;;;;;20.33;12.75;;;;;;;19.48;80.32;101579.19;5029165;28;20266;-54
2022/07/31 08:04:29;;;;;;;19.15;13.45;;;;;;;19.43;79.59;101582.53;5029980;28;20501;-54
2022/07/31 08:06:54;;;;;;;19.55;13.63;;;;;;;19.42;79.82;101578.19;5036894;28;20029;-55
2022/07/31 08:09:21;;;;;;;18.80;13.27;;;;;;;19.43;80.00;101587.91;5035791;28;20065;-55
2022/07/31 08:11:47;;;;;;;22.08;14.48;;;;;;;19.44;79.54;101583.34;5030708;28;20029;-52
2022/07/31 08:14:12;;;;;;;21.90;14.27;;;;;;;19.43;79.74;101574.44;5037965;28;20025;-54
2022/07/31 08:16:37;;;;;;;20.73;14.70;;;;;;;19.43;79.62;101582.53;5024058;28;20405;-55
2022/07/31 08:19:02;;;;;;;21.05;15.15;;;;;;;19.44;79.45;101578.78;5035688;28;20024;-54
2022/07/31 08:21:28;;;;;;;23.88;15.20;;;;;;;19.46;79.51;101578.59;5026250;28;20040;-55
2022/07/31 08:23:53;;;;;;;22.75;15.68;;;;;;;19.56;79.67;101583.53;5030024;28;20448;-53
2022/07/31 08:26:18;;;;;;;25.60;16.23;;;;;;;19.60;79.68;101574.81;5032687;28;20425;-54
2022/07/31 08:28:44;;;;;;;22.58;15.82;;;;;;;19.67;79.54;101577.53;5026621;28;20112;-54
2022/07/31 08:31:10;;;;;;;21.98;15.13;;;;;;;19.72;79.60;101575.00;5031950;28;20390;-53
2022/07/31 08:33:35;;;;;;;19.75;15.55;;;;;;;19.75;79.47;101577.28;5026599;28;20025;-54
2022/07/31 08:36:01;;;;;;;21.17;15.98;;;;;;;19.75;79.18;101572.72;5025140;28;20710;-55
2022/07/31 08:38:27;;;;;;;20.30;15.70;;;;;;;19.70;78.96;101582.47;5024025;28;20402;-53
2022/07/31 08:40:53;;;;;;;24.33;16.60;;;;;;;19.70;79.09;101580.63;5022747;28;20486;-54
2022/07/31 08:43:18;;;;;;;19.30;15.98;;;;;;;19.76;79.84;101581.63;5032539;28;20031;-54
2022/07/31 08:45:46;;;;;;;21.60;16.70;;;;;;;19.82;79.27;101577.25;5028628;28;20522;-55
2022/07/31 08:48:14;;;;;;;22.48;17.35;;;;;;;19.76;79.08;101577.06;5029443;28;20033;-55
2022/07/31 08:50:43;;;;;;;22.27;16.73;;;;;;;19.70;79.15;101575.22;5025441;28;20335;-52
2022/07/31 08:53:13;;;;;;;;;;;;;;;19.76;79.10;101587.84;5035598;28;20049;-53
2022/07/31 08:55:39;;;;;;;22.00;17.05;;;;;;;19.75;79.19;101583.50;5026364;28;19975;-56
2022/07/31 08:58:05;;;;;;;22.40;17.40;;;;;;;19.73;79.29;101582.88;5034805;28;20030;-55
2022/07/31 09:00:32;;;;;;;24.30;17.20;;;;;;;19.75;79.08;101579.97;5025839;28;20075;-55
2022/07/31 09:02:57;;;;;;;21.13;17.15;;;;;;;19.77;79.38;101583.28;5032093;28;20065;-55
2022/07/31 09:05:23;;;;;;;21.48;17.80;;;;;;;19.74;78.92;101584.53;5028497;28;20675;-54
2022/07/31 09:07:49;;;;;;;22.27;17.55;;;;;;;19.69;79.16;101581.66;5028260;28;20084;-55
2022/07/31 09:10:26;;;;;;;22.00;17.10;;;;;;;19.67;79.09;101572.13;5027896;28;20104;-55
2022/07/31 09:12:53;;;;;;;21.45;17.27;;;;;;;19.72;79.30;101575.00;5021708;28;20029;-54
2022/07/31 09:15:28;;;;;;;20.92;16.88;;;;;;;19.75;79.45;101572.72;5023474;28;20104;-55
2022/07/31 09:17:54;;;;;;;21.77;16.90;;;;;;;19.79;79.45;101565.03;5024240;28;20094;-55
2022/07/31 09:20:24;;;;;;;19.38;16.75;;;;;;;19.87;79.27;101567.47;5025164;28;20112;-55
2022/07/31 09:23:05;;;;;;;21.15;16.75;;;;;;;19.97;79.50;101570.56;5015753;28;21119;-54
2022/07/31 09:25:31;;;;;;;20.27;16.25;;;;;;;20.01;79.31;101571.78;5022533;28;20510;-56
2022/07/31 09:28:03;;;;;;;20.48;16.70;;;;;;;20.08;79.46;101580.66;5024799;28;20067;-55
2022/07/31 09:30:29;;;;;;;18.92;15.73;;;;;;;20.15;79.18;101571.69;5026860;28;20025;-54
2022/07/31 09:32:56;;;;;;;19.63;15.38;;;;;;;20.18;79.32;101579.34;5019535;28;20149;-55
2022/07/31 09:35:21;;;;;;;20.58;15.15;;;;;;;20.22;79.28;101575.19;5024936;28;20060;-53
2022/07/31 09:37:47;;;;;;;19.02;15.52;;;;;;;20.37;79.59;101563.06;5025313;28;20052;-54
2022/07/31 09:40:13;;;;;;;18.27;15.00;;;;;;;20.54;79.85;101576.06;5025880;28;20025;-54
2022/07/31 09:42:42;;;;;;;20.50;14.70;;;;;;;20.55;78.90;101577.72;5034372;28;20030;-55
2022/07/31 09:45:19;;;;;;;17.98;14.60;;;;;;;20.57;78.88;101572.94;5025905;28;20049;-54
2022/07/31 09:47:45;;;;;;;18.13;13.88;;;;;;;20.59;78.93;101568.97;5024413;28;20029;-55
2022/07/31 09:50:11;;;;;;;20.85;13.35;;;;;;;20.69;78.47;101561.19;5022659;28;20371;-55
2022/07/31 09:52:36;;;;;;;15.73;12.07;;;;;;;20.74;77.94;101563.22;5023542;28;20244;-54
2022/07/31 09:55:06;;;;;;;13.80;12.10;;;;;;;20.76;77.88;101563.84;5031758;28;20036;-54
2022/07/31 09:57:34;;;;;;;14.57;11.88;;;;;;;20.79;77.67;101562.56;5027988;28;20025;-55
2022/07/31 10:00:00;;;;;;;15.27;11.85;;;;;;;20.84;77.54;101562.75;5027404;28;20018;-54
2022/07/31 10:02:26;;;;;;;16.60;12.30;;;;;;;20.84;77.16;101558.19;5031984;28;20390;-55
2022/07/31 10:04:53;;;;;;;16.33;12.00;;;;;;;20.91;76.93;101566.22;5028163;28;20018;-55
2022/07/31 10:07:18;;;;;;;13.52;11.82;;;;;;;20.95;76.80;101559.31;5028915;28;20025;-55
2022/07/31 10:09:45;;;;;;;13.80;11.85;;;;;;;21.03;76.55;101559.03;5025042;28;20029;-54
2022/07/31 10:12:13;;;;;;;11.98;10.75;;;;;;;21.12;76.39;101556.88;5022046;28;20132;-55
2022/07/31 10:14:42;;;;;;;13.70;10.98;;;;;;;21.26;75.85;101563.84;5032709;28;20033;-54
2022/07/31 10:17:09;;;;;;;12.82;10.40;;;;;;;21.37;75.83;101564.94;5032065;28;20029;-53
2022/07/31 10:19:37;;;;;;;12.68;10.57;;;;;;;21.44;75.52;101569.25;5032703;28;20034;-55
2022/07/31 10:22:04;;;;;;;11.43;9.77;;;;;;;21.44;74.99;101557.63;5027170;28;20040;-54
2022/07/31 10:24:34;;;;;;;13.40;9.52;;;;;;;21.52;75.06;101557.31;5036465;28;20029;-55
2022/07/31 10:27:00;;;;;;;11.05;8.93;;;;;;;21.64;75.04;101553.63;5030529;28;20511;-56
2022/07/31 10:29:26;;;;;;;12.32;9.02;;;;;;;21.72;74.31;101539.00;5033121;28;20036;-55
2022/07/31 10:31:51;;;;;;;11.13;9.05;;;;;;;21.81;74.43;101543.03;5026609;28;20116;-55
2022/07/31 10:34:17;;;;;;;15.40;8.82;;;;;;;21.96;74.62;101540.72;5022065;28;20069;-55
2022/07/31 10:36:45;;;;;;;10.88;8.10;;;;;;;22.04;74.04;101546.94;5020725;28;20039;-54
2022/07/31 10:39:27;;;;;;;11.00;7.93;;;;;;;21.98;73.19;101545.94;5025718;28;20109;-51
2022/07/31 10:41:59;;;;;;;8.07;7.07;;;;;;;21.90;72.58;101538.94;5016835;28;20800;-55
2022/07/31 10:44:35;;;;;;;8.15;7.35;;;;;;;21.82;72.26;101544.69;5029547;28;20371;-55
2022/07/31 10:47:14;;;;;;;10.27;6.90;;;;;;;21.81;72.34;101547.59;5017749;28;20395;-55
2022/07/31 10:49:40;;;;;;;7.78;6.90;;;;;;;21.75;72.08;101532.31;5021026;28;20040;-55
2022/07/31 10:52:06;;;;;;;9.18;6.15;;;;;;;21.75;72.24;101535.00;5017740;28;20120;-55
2022/07/31 10:54:40;;;;;;;7.97;5.80;;;;;;;21.83;72.40;101543.63;5027343;28;20171;-54
2022/07/31 10:57:05;;;;;;;9.52;6.30;;;;;;;21.84;72.02;101537.16;5030031;28;20030;-55
2022/07/31 10:59:31;;;;;;;7.85;6.00;;;;;;;21.87;72.33;101536.69;5031046;28;20394;-55
2022/07/31 11:01:56;;;;;;;7.32;5.72;;;;;;;21.86;72.14;101545.03;5020001;28;20521;-54
2022/07/31 11:04:33;;;;;;;11.82;5.63;;;;;;;21.92;72.24;101534.13;5022226;28;20036;-55
2022/07/31 11:06:59;;;;;;;8.18;5.88;;;;;;;22.03;71.83;101523.59;5023345;28;20138;-52
2022/07/31 11:09:28;;;;;;;7.80;5.70;;;;;;;22.14;72.03;101518.25;5038727;28;20155;-54
2022/07/31 11:11:54;;;;;;;9.85;5.45;;;;;;;22.29;72.08;101519.72;5024975;28;20029;-56
2022/07/31 11:14:33;;;;;;;9.27;5.35;;;;;;;22.37;71.90;101519.38;5025677;28;20506;-55